sensor_id;sensor_type;location;lat;lon;timestamp;P1;durP1;ratioP1;P2;durP2;ratioP2
1412;SDS011;701;52.526;13.408;2023-12-20T00:01:25;5.57;;;2.67;;
1412;SDS011;701;52.526;13.408;2023-12-20T00:03:51;6.30;;;3.08;;
1412;SDS011;701;52.526;13.408;2023-12-20T00:06:16;6.23;;;3.00;;
1412;SDS011;701;52.526;13.408;2023-12-20T00:08:42;5.63;;;2.90;;
1412;SDS011;701;52.526;13.408;2023-12-20T00:11:09;6.00;;;3.00;;
1412;SDS011;701;52.526;13.408;2023-12-20T00:13:35;7.25;;;2.80;;
1412;SDS011;701;52.526;13.408;2023-12-20T00:16:00;5.80;;;2.88;;
1412;SDS011;701;52.526;13.408;2023-12-20T00:18:26;6.90;;;3.15;;
1412;SDS011;701;52.526;13.408;2023-12-20T00:20:52;5.93;;;3.13;;
1412;SDS011;701;52.526;13.408;2023-12-20T00:23:17;5.55;;;2.75;;
1412;SDS011;701;52.526;13.408;2023-12-20T00:25:43;6.10;;;2.57;;
1412;SDS011;701;52.526;13.408;2023-12-20T00:28:09;5.95;;;2.70;;
1412;SDS011;701;52.526;13.408;2023-12-20T00:30:34;6.27;;;3.00;;
1412;SDS011;701;52.526;13.408;2023-12-20T00:33:01;6.25;;;2.70;;
1412;SDS011;701;52.526;13.408;2023-12-20T00:35:27;6.63;;;2.70;;
1412;SDS011;701;52.526;13.408;2023-12-20T00:37:53;5.40;;;2.60;;
1412;SDS011;701;52.526;13.408;2023-12-20T00:40:18;5.90;;;2.78;;
1412;SDS011;701;52.526;13.408;2023-12-20T00:42:45;5.93;;;2.80;;
1412;SDS011;701;52.526;13.408;2023-12-20T00:45:12;5.55;;;2.70;;
1412;SDS011;701;52.526;13.408;2023-12-20T00:47:38;6.03;;;2.95;;
1412;SDS011;701;52.526;13.408;2023-12-20T00:50:03;6.07;;;2.97;;
1412;SDS011;701;52.526;13.408;2023-12-20T00:52:30;5.93;;;2.60;;
1412;SDS011;701;52.526;13.408;2023-12-20T00:54:55;5.37;;;2.50;;
1412;SDS011;701;52.526;13.408;2023-12-20T00:57:21;5.73;;;2.70;;
1412;SDS011;701;52.526;13.408;2023-12-20T00:59:46;5.88;;;2.58;;
1412;SDS011;701;52.526;13.408;2023-12-20T01:02:12;5.43;;;2.40;;
1412;SDS011;701;52.526;13.408;2023-12-20T01:04:38;5.88;;;3.10;;
1412;SDS011;701;52.526;13.408;2023-12-20T01:07:04;5.27;;;2.30;;
1412;SDS011;701;52.526;13.408;2023-12-20T01:09:29;5.72;;;2.75;;
1412;SDS011;701;52.526;13.408;2023-12-20T01:11:55;6.77;;;2.80;;
1412;SDS011;701;52.526;13.408;2023-12-20T01:14:21;6.63;;;3.13;;
1412;SDS011;701;52.526;13.408;2023-12-20T01:16:46;5.95;;;2.53;;
1412;SDS011;701;52.526;13.408;2023-12-20T01:19:12;6.40;;;2.67;;
1412;SDS011;701;52.526;13.408;2023-12-20T01:21:39;5.72;;;2.83;;
1412;SDS011;701;52.526;13.408;2023-12-20T01:24:05;7.20;;;3.03;;
1412;SDS011;701;52.526;13.408;2023-12-20T01:26:31;6.57;;;3.15;;
1412;SDS011;701;52.526;13.408;2023-12-20T01:28:57;6.03;;;2.90;;
1412;SDS011;701;52.526;13.408;2023-12-20T01:31:22;5.53;;;2.50;;
1412;SDS011;701;52.526;13.408;2023-12-20T01:33:48;6.03;;;2.65;;
1412;SDS011;701;52.526;13.408;2023-12-20T01:36:14;5.20;;;2.65;;
1412;SDS011;701;52.526;13.408;2023-12-20T01:38:39;6.10;;;2.40;;
1412;SDS011;701;52.526;13.408;2023-12-20T01:41:05;5.43;;;2.53;;
1412;SDS011;701;52.526;13.408;2023-12-20T01:43:31;5.53;;;2.40;;
1412;SDS011;701;52.526;13.408;2023-12-20T01:45:57;6.05;;;3.10;;
1412;SDS011;701;52.526;13.408;2023-12-20T01:48:23;5.22;;;2.17;;
1412;SDS011;701;52.526;13.408;2023-12-20T01:50:50;5.75;;;2.50;;
1412;SDS011;701;52.526;13.408;2023-12-20T01:53:16;5.20;;;2.55;;
1412;SDS011;701;52.526;13.408;2023-12-20T01:55:43;5.43;;;2.58;;
1412;SDS011;701;52.526;13.408;2023-12-20T01:58:10;5.50;;;2.58;;
1412;SDS011;701;52.526;13.408;2023-12-20T02:00:37;5.65;;;2.58;;
1412;SDS011;701;52.526;13.408;2023-12-20T02:03:03;5.65;;;2.40;;
1412;SDS011;701;52.526;13.408;2023-12-20T02:05:30;5.43;;;2.45;;
1412;SDS011;701;52.526;13.408;2023-12-20T02:07:57;5.45;;;2.47;;
1412;SDS011;701;52.526;13.408;2023-12-20T02:10:23;5.38;;;2.28;;
1412;SDS011;701;52.526;13.408;2023-12-20T02:12:49;5.20;;;2.22;;
1412;SDS011;701;52.526;13.408;2023-12-20T02:15:15;4.93;;;2.15;;
1412;SDS011;701;52.526;13.408;2023-12-20T02:17:41;5.30;;;2.17;;
1412;SDS011;701;52.526;13.408;2023-12-20T02:20:08;5.22;;;1.55;;
1412;SDS011;701;52.526;13.408;2023-12-20T02:22:34;3.88;;;1.20;;
1412;SDS011;701;52.526;13.408;2023-12-20T02:25:00;3.75;;;1.15;;
1412;SDS011;701;52.526;13.408;2023-12-20T02:27:26;4.10;;;1.10;;
1412;SDS011;701;52.526;13.408;2023-12-20T02:29:52;3.50;;;0.98;;
1412;SDS011;701;52.526;13.408;2023-12-20T02:32:18;3.97;;;1.10;;
1412;SDS011;701;52.526;13.408;2023-12-20T02:34:47;6.00;;;1.75;;
1412;SDS011;701;52.526;13.408;2023-12-20T02:37:13;4.40;;;1.70;;
1412;SDS011;701;52.526;13.408;2023-12-20T02:39:39;4.27;;;1.83;;
1412;SDS011;701;52.526;13.408;2023-12-20T02:42:05;4.43;;;1.60;;
1412;SDS011;701;52.526;13.408;2023-12-20T02:44:30;7.30;;;2.23;;
1412;SDS011;701;52.526;13.408;2023-12-20T02:46:56;6.47;;;2.20;;
1412;SDS011;701;52.526;13.408;2023-12-20T02:49:22;5.27;;;2.23;;
1412;SDS011;701;52.526;13.408;2023-12-20T02:51:47;5.13;;;2.47;;
1412;SDS011;701;52.526;13.408;2023-12-20T02:54:13;7.30;;;2.30;;
1412;SDS011;701;52.526;13.408;2023-12-20T02:56:39;5.63;;;2.60;;
1412;SDS011;701;52.526;13.408;2023-12-20T02:59:05;6.40;;;2.53;;
1412;SDS011;701;52.526;13.408;2023-12-20T03:01:31;7.38;;;2.50;;
1412;SDS011;701;52.526;13.408;2023-12-20T03:03:57;6.25;;;2.85;;
1412;SDS011;701;52.526;13.408;2023-12-20T03:06:22;6.47;;;2.60;;
1412;SDS011;701;52.526;13.408;2023-12-20T03:08:48;5.63;;;2.67;;
1412;SDS011;701;52.526;13.408;2023-12-20T03:11:14;6.15;;;2.70;;
1412;SDS011;701;52.526;13.408;2023-12-20T03:13:40;5.53;;;2.50;;
1412;SDS011;701;52.526;13.408;2023-12-20T03:16:09;6.10;;;2.40;;
1412;SDS011;701;52.526;13.408;2023-12-20T03:18:35;5.75;;;2.13;;
1412;SDS011;701;52.526;13.408;2023-12-20T03:21:01;6.03;;;2.45;;
1412;SDS011;701;52.526;13.408;2023-12-20T03:23:27;5.53;;;2.22;;
1412;SDS011;701;52.526;13.408;2023-12-20T03:25:52;7.90;;;2.30;;
1412;SDS011;701;52.526;13.408;2023-12-20T03:28:18;10.27;;;2.35;;
1412;SDS011;701;52.526;13.408;2023-12-20T03:30:44;6.63;;;2.00;;
1412;SDS011;701;52.526;13.408;2023-12-20T03:33:10;6.63;;;1.80;;
1412;SDS011;701;52.526;13.408;2023-12-20T03:35:36;6.80;;;1.90;;
1412;SDS011;701;52.526;13.408;2023-12-20T03:38:02;6.47;;;1.70;;
1412;SDS011;701;52.526;13.408;2023-12-20T03:40:28;8.23;;;1.95;;
1412;SDS011;701;52.526;13.408;2023-12-20T03:42:53;10.87;;;1.67;;
1412;SDS011;701;52.526;13.408;2023-12-20T03:45:19;12.07;;;2.40;;
1412;SDS011;701;52.526;13.408;2023-12-20T03:47:44;3.80;;;1.40;;
1412;SDS011;701;52.526;13.408;2023-12-20T03:50:10;9.27;;;1.55;;
1412;SDS011;701;52.526;13.408;2023-12-20T03:52:36;11.17;;;1.80;;
1412;SDS011;701;52.526;13.408;2023-12-20T03:55:01;7.07;;;1.63;;
1412;SDS011;701;52.526;13.408;2023-12-20T03:57:28;9.00;;;1.70;;
1412;SDS011;701;52.526;13.408;2023-12-20T03:59:53;10.05;;;1.60;;
1412;SDS011;701;52.526;13.408;2023-12-20T04:02:19;7.20;;;1.50;;
1412;SDS011;701;52.526;13.408;2023-12-20T04:04:45;7.88;;;1.67;;
1412;SDS011;701;52.526;13.408;2023-12-20T04:07:10;4.93;;;1.42;;
1412;SDS011;701;52.526;13.408;2023-12-20T04:09:36;8.30;;;1.70;;
1412;SDS011;701;52.526;13.408;2023-12-20T04:12:02;5.53;;;1.75;;
1412;SDS011;701;52.526;13.408;2023-12-20T04:14:27;10.13;;;2.03;;
1412;SDS011;701;52.526;13.408;2023-12-20T04:16:53;8.63;;;1.98;;
1412;SDS011;701;52.526;13.408;2023-12-20T04:19:19;11.23;;;1.80;;
1412;SDS011;701;52.526;13.408;2023-12-20T04:21:45;13.60;;;2.03;;
1412;SDS011;701;52.526;13.408;2023-12-20T04:24:10;7.70;;;1.83;;
1412;SDS011;701;52.526;13.408;2023-12-20T04:26:36;10.05;;;1.70;;
1412;SDS011;701;52.526;13.408;2023-12-20T04:29:02;11.20;;;1.50;;
1412;SDS011;701;52.526;13.408;2023-12-20T04:31:27;5.68;;;1.70;;
1412;SDS011;701;52.526;13.408;2023-12-20T04:33:53;10.00;;;1.80;;
1412;SDS011;701;52.526;13.408;2023-12-20T04:36:19;7.57;;;1.33;;
1412;SDS011;701;52.526;13.408;2023-12-20T04:38:44;9.07;;;1.45;;
1412;SDS011;701;52.526;13.408;2023-12-20T04:41:10;8.53;;;1.30;;
1412;SDS011;701;52.526;13.408;2023-12-20T04:43:36;7.43;;;1.63;;
1412;SDS011;701;52.526;13.408;2023-12-20T04:46:02;5.78;;;1.20;;
1412;SDS011;701;52.526;13.408;2023-12-20T04:48:28;5.37;;;1.50;;
1412;SDS011;701;52.526;13.408;2023-12-20T04:50:54;4.75;;;1.20;;
1412;SDS011;701;52.526;13.408;2023-12-20T04:53:19;6.63;;;1.53;;
1412;SDS011;701;52.526;13.408;2023-12-20T04:55:45;9.15;;;1.80;;
1412;SDS011;701;52.526;13.408;2023-12-20T04:58:11;6.80;;;1.50;;
1412;SDS011;701;52.526;13.408;2023-12-20T05:00:36;8.70;;;1.58;;
1412;SDS011;701;52.526;13.408;2023-12-20T05:03:02;8.23;;;1.80;;
1412;SDS011;701;52.526;13.408;2023-12-20T05:05:28;9.65;;;1.70;;
1412;SDS011;701;52.526;13.408;2023-12-20T05:07:53;12.93;;;1.70;;
1412;SDS011;701;52.526;13.408;2023-12-20T05:10:19;9.55;;;1.52;;
1412;SDS011;701;52.526;13.408;2023-12-20T05:12:45;9.18;;;1.60;;
1412;SDS011;701;52.526;13.408;2023-12-20T05:15:10;11.00;;;1.63;;
1412;SDS011;701;52.526;13.408;2023-12-20T05:17:36;10.18;;;1.98;;
1412;SDS011;701;52.526;13.408;2023-12-20T05:20:02;9.37;;;1.80;;
1412;SDS011;701;52.526;13.408;2023-12-20T05:22:29;7.43;;;1.42;;
1412;SDS011;701;52.526;13.408;2023-12-20T05:24:55;7.60;;;1.65;;
1412;SDS011;701;52.526;13.408;2023-12-20T05:27:20;8.13;;;1.93;;
1412;SDS011;701;52.526;13.408;2023-12-20T05:29:46;10.25;;;1.48;;
1412;SDS011;701;52.526;13.408;2023-12-20T05:32:11;7.35;;;1.67;;
1412;SDS011;701;52.526;13.408;2023-12-20T05:34:37;6.43;;;1.60;;
1412;SDS011;701;52.526;13.408;2023-12-20T05:37:03;7.95;;;1.45;;
1412;SDS011;701;52.526;13.408;2023-12-20T05:39:29;7.33;;;1.67;;
1412;SDS011;701;52.526;13.408;2023-12-20T05:41:56;9.15;;;1.50;;
1412;SDS011;701;52.526;13.408;2023-12-20T05:44:22;7.18;;;1.67;;
1412;SDS011;701;52.526;13.408;2023-12-20T05:46:47;8.90;;;1.85;;
1412;SDS011;701;52.526;13.408;2023-12-20T05:49:13;7.75;;;1.80;;
1412;SDS011;701;52.526;13.408;2023-12-20T05:51:39;5.70;;;1.73;;
1412;SDS011;701;52.526;13.408;2023-12-20T05:54:04;8.93;;;1.42;;
1412;SDS011;701;52.526;13.408;2023-12-20T05:56:30;6.93;;;1.40;;
1412;SDS011;701;52.526;13.408;2023-12-20T05:58:56;6.07;;;1.17;;
1412;SDS011;701;52.526;13.408;2023-12-20T06:01:22;6.65;;;1.27;;
1412;SDS011;701;52.526;13.408;2023-12-20T06:03:48;9.40;;;1.50;;
1412;SDS011;701;52.526;13.408;2023-12-20T06:06:13;6.60;;;1.65;;
1412;SDS011;701;52.526;13.408;2023-12-20T06:08:40;14.43;;;1.95;;
1412;SDS011;701;52.526;13.408;2023-12-20T06:11:06;10.13;;;1.85;;
1412;SDS011;701;52.526;13.408;2023-12-20T06:13:31;7.77;;;1.50;;
1412;SDS011;701;52.526;13.408;2023-12-20T06:15:57;10.25;;;2.35;;
1412;SDS011;701;52.526;13.408;2023-12-20T06:18:23;12.73;;;2.03;;
1412;SDS011;701;52.526;13.408;2023-12-20T06:20:49;4.07;;;1.23;;
1412;SDS011;701;52.526;13.408;2023-12-20T06:23:15;7.63;;;1.50;;
1412;SDS011;701;52.526;13.408;2023-12-20T06:25:41;5.83;;;1.50;;
1412;SDS011;701;52.526;13.408;2023-12-20T06:28:06;9.68;;;2.20;;
1412;SDS011;701;52.526;13.408;2023-12-20T06:30:33;14.83;;;1.77;;
1412;SDS011;701;52.526;13.408;2023-12-20T06:32:59;5.78;;;1.42;;
1412;SDS011;701;52.526;13.408;2023-12-20T06:35:25;9.75;;;2.03;;
1412;SDS011;701;52.526;13.408;2023-12-20T06:37:50;11.27;;;1.43;;
1412;SDS011;701;52.526;13.408;2023-12-20T06:40:17;8.40;;;1.58;;
1412;SDS011;701;52.526;13.408;2023-12-20T06:42:43;11.77;;;1.63;;
1412;SDS011;701;52.526;13.408;2023-12-20T06:45:09;10.85;;;1.48;;
1412;SDS011;701;52.526;13.408;2023-12-20T06:47:35;8.70;;;1.55;;
1412;SDS011;701;52.526;13.408;2023-12-20T06:50:01;8.90;;;1.67;;
1412;SDS011;701;52.526;13.408;2023-12-20T06:52:26;8.40;;;1.47;;
1412;SDS011;701;52.526;13.408;2023-12-20T06:54:52;8.38;;;1.50;;
1412;SDS011;701;52.526;13.408;2023-12-20T06:57:18;8.03;;;1.83;;
1412;SDS011;701;52.526;13.408;2023-12-20T06:59:44;11.77;;;2.05;;
1412;SDS011;701;52.526;13.408;2023-12-20T07:02:10;12.02;;;1.67;;
1412;SDS011;701;52.526;13.408;2023-12-20T07:04:40;9.60;;;2.10;;
1412;SDS011;701;52.526;13.408;2023-12-20T07:07:06;7.35;;;2.08;;
1412;SDS011;701;52.526;13.408;2023-12-20T07:09:32;15.40;;;2.03;;
1412;SDS011;701;52.526;13.408;2023-12-20T07:11:58;10.07;;;2.40;;
1412;SDS011;701;52.526;13.408;2023-12-20T07:14:24;6.70;;;1.17;;
1412;SDS011;701;52.526;13.408;2023-12-20T07:16:50;14.07;;;2.25;;
1412;SDS011;701;52.526;13.408;2023-12-20T07:19:15;4.83;;;1.30;;
1412;SDS011;701;52.526;13.408;2023-12-20T07:21:41;10.77;;;1.77;;
1412;SDS011;701;52.526;13.408;2023-12-20T07:24:07;9.03;;;2.10;;
1412;SDS011;701;52.526;13.408;2023-12-20T07:26:33;8.10;;;1.85;;
1412;SDS011;701;52.526;13.408;2023-12-20T07:28:59;7.40;;;1.63;;
1412;SDS011;701;52.526;13.408;2023-12-20T07:31:25;6.30;;;1.77;;
1412;SDS011;701;52.526;13.408;2023-12-20T07:33:51;9.43;;;1.55;;
1412;SDS011;701;52.526;13.408;2023-12-20T07:36:17;7.77;;;2.07;;
1412;SDS011;701;52.526;13.408;2023-12-20T07:38:42;7.93;;;1.70;;
1412;SDS011;701;52.526;13.408;2023-12-20T07:41:12;8.93;;;1.60;;
1412;SDS011;701;52.526;13.408;2023-12-20T07:43:38;9.73;;;1.57;;
1412;SDS011;701;52.526;13.408;2023-12-20T07:46:07;11.32;;;1.95;;
1412;SDS011;701;52.526;13.408;2023-12-20T07:48:34;6.05;;;1.50;;
1412;SDS011;701;52.526;13.408;2023-12-20T07:51:00;8.53;;;1.70;;
1412;SDS011;701;52.526;13.408;2023-12-20T07:53:26;8.55;;;1.55;;
1412;SDS011;701;52.526;13.408;2023-12-20T07:55:52;8.35;;;1.60;;
1412;SDS011;701;52.526;13.408;2023-12-20T07:58:18;7.13;;;1.65;;
1412;SDS011;701;52.526;13.408;2023-12-20T08:00:44;7.00;;;2.03;;
1412;SDS011;701;52.526;13.408;2023-12-20T08:03:10;9.30;;;1.30;;
1412;SDS011;701;52.526;13.408;2023-12-20T08:05:36;8.27;;;1.70;;
1412;SDS011;701;52.526;13.408;2023-12-20T08:08:04;12.77;;;1.80;;
1412;SDS011;701;52.526;13.408;2023-12-20T08:10:30;11.52;;;1.88;;
1412;SDS011;701;52.526;13.408;2023-12-20T08:12:56;6.53;;;1.60;;
1412;SDS011;701;52.526;13.408;2023-12-20T08:15:21;5.80;;;1.42;;
1412;SDS011;701;52.526;13.408;2023-12-20T08:17:47;8.80;;;2.00;;
1412;SDS011;701;52.526;13.408;2023-12-20T08:20:13;10.85;;;2.05;;
1412;SDS011;701;52.526;13.408;2023-12-20T08:22:39;13.53;;;2.33;;
1412;SDS011;701;52.526;13.408;2023-12-20T08:25:04;10.45;;;2.45;;
1412;SDS011;701;52.526;13.408;2023-12-20T08:27:30;9.00;;;2.43;;
1412;SDS011;701;52.526;13.408;2023-12-20T08:29:57;7.82;;;1.80;;
1412;SDS011;701;52.526;13.408;2023-12-20T08:32:25;8.43;;;1.92;;
1412;SDS011;701;52.526;13.408;2023-12-20T08:34:51;10.10;;;2.20;;
1412;SDS011;701;52.526;13.408;2023-12-20T08:37:17;10.23;;;1.80;;
1412;SDS011;701;52.526;13.408;2023-12-20T08:39:43;10.82;;;2.00;;
1412;SDS011;701;52.526;13.408;2023-12-20T08:42:09;8.87;;;1.93;;
1412;SDS011;701;52.526;13.408;2023-12-20T08:44:35;10.15;;;1.80;;
1412;SDS011;701;52.526;13.408;2023-12-20T08:47:00;10.07;;;2.23;;
1412;SDS011;701;52.526;13.408;2023-12-20T08:49:26;14.07;;;3.97;;
1412;SDS011;701;52.526;13.408;2023-12-20T08:51:53;10.07;;;2.00;;
1412;SDS011;701;52.526;13.408;2023-12-20T08:54:18;8.10;;;1.90;;
1412;SDS011;701;52.526;13.408;2023-12-20T08:56:44;10.20;;;1.90;;
1412;SDS011;701;52.526;13.408;2023-12-20T08:59:11;8.40;;;1.38;;
1412;SDS011;701;52.526;13.408;2023-12-20T09:01:37;8.03;;;1.43;;
1412;SDS011;701;52.526;13.408;2023-12-20T09:04:03;8.52;;;2.03;;
1412;SDS011;701;52.526;13.408;2023-12-20T09:06:29;8.52;;;1.83;;
1412;SDS011;701;52.526;13.408;2023-12-20T09:08:54;10.47;;;3.53;;
1412;SDS011;701;52.526;13.408;2023-12-20T09:11:20;9.65;;;2.67;;
1412;SDS011;701;52.526;13.408;2023-12-20T09:13:46;18.47;;;4.20;;
1412;SDS011;701;52.526;13.408;2023-12-20T09:16:12;11.27;;;2.10;;
1412;SDS011;701;52.526;13.408;2023-12-20T09:18:38;13.00;;;3.03;;
1412;SDS011;701;52.526;13.408;2023-12-20T09:21:04;14.27;;;5.20;;
1412;SDS011;701;52.526;13.408;2023-12-20T09:23:30;10.00;;;2.42;;
1412;SDS011;701;52.526;13.408;2023-12-20T09:25:56;15.75;;;4.88;;
1412;SDS011;701;52.526;13.408;2023-12-20T09:28:22;11.98;;;3.28;;
1412;SDS011;701;52.526;13.408;2023-12-20T09:30:47;11.10;;;2.63;;
1412;SDS011;701;52.526;13.408;2023-12-20T09:33:14;14.20;;;2.95;;
1412;SDS011;701;52.526;13.408;2023-12-20T09:35:40;11.43;;;2.38;;
1412;SDS011;701;52.526;13.408;2023-12-20T09:38:05;12.57;;;2.50;;
1412;SDS011;701;52.526;13.408;2023-12-20T09:40:32;15.85;;;3.40;;
1412;SDS011;701;52.526;13.408;2023-12-20T09:45:34;9.38;;;2.45;;
1412;SDS011;701;52.526;13.408;2023-12-20T09:47:59;19.02;;;3.00;;
1412;SDS011;701;52.526;13.408;2023-12-20T09:50:26;13.00;;;3.72;;
1412;SDS011;701;52.526;13.408;2023-12-20T09:52:53;14.20;;;3.70;;
1412;SDS011;701;52.526;13.408;2023-12-20T09:55:23;5.85;;;1.50;;
1412;SDS011;701;52.526;13.408;2023-12-20T09:57:50;15.68;;;2.80;;
1412;SDS011;701;52.526;13.408;2023-12-20T10:00:16;12.35;;;2.55;;
1412;SDS011;701;52.526;13.408;2023-12-20T10:02:48;14.13;;;3.42;;
1412;SDS011;701;52.526;13.408;2023-12-20T10:05:19;19.73;;;3.95;;
1412;SDS011;701;52.526;13.408;2023-12-20T10:07:58;14.10;;;2.80;;
1412;SDS011;701;52.526;13.408;2023-12-20T10:10:25;16.98;;;3.90;;
1412;SDS011;701;52.526;13.408;2023-12-20T10:13:00;16.97;;;4.03;;
1412;SDS011;701;52.526;13.408;2023-12-20T10:15:34;13.10;;;3.60;;
1412;SDS011;701;52.526;13.408;2023-12-20T10:18:01;12.70;;;2.17;;
1412;SDS011;701;52.526;13.408;2023-12-20T10:20:28;16.02;;;3.08;;
1412;SDS011;701;52.526;13.408;2023-12-20T10:22:58;19.33;;;2.80;;
1412;SDS011;701;52.526;13.408;2023-12-20T10:25:25;19.03;;;3.53;;
1412;SDS011;701;52.526;13.408;2023-12-20T10:28:08;14.38;;;3.85;;
1412;SDS011;701;52.526;13.408;2023-12-20T10:30:38;15.15;;;3.45;;
1412;SDS011;701;52.526;13.408;2023-12-20T10:33:07;12.00;;;2.05;;
1412;SDS011;701;52.526;13.408;2023-12-20T10:35:35;9.15;;;1.70;;
1412;SDS011;701;52.526;13.408;2023-12-20T10:38:03;9.60;;;1.80;;
1412;SDS011;701;52.526;13.408;2023-12-20T10:40:30;14.52;;;2.50;;
1412;SDS011;701;52.526;13.408;2023-12-20T10:42:59;10.93;;;2.22;;
1412;SDS011;701;52.526;13.408;2023-12-20T10:45:26;16.55;;;2.95;;
1412;SDS011;701;52.526;13.408;2023-12-20T10:47:52;8.57;;;2.17;;
1412;SDS011;701;52.526;13.408;2023-12-20T10:50:18;6.20;;;1.65;;
1412;SDS011;701;52.526;13.408;2023-12-20T10:52:45;9.85;;;2.20;;
1412;SDS011;701;52.526;13.408;2023-12-20T10:55:13;11.02;;;2.10;;
1412;SDS011;701;52.526;13.408;2023-12-20T10:57:39;9.37;;;1.90;;
1412;SDS011;701;52.526;13.408;2023-12-20T11:00:05;11.50;;;2.60;;
1412;SDS011;701;52.526;13.408;2023-12-20T11:02:36;13.50;;;2.50;;
1412;SDS011;701;52.526;13.408;2023-12-20T11:08:10;13.67;;;2.10;;
1412;SDS011;701;52.526;13.408;2023-12-20T11:10:49;7.38;;;1.73;;
1412;SDS011;701;52.526;13.408;2023-12-20T11:14:05;9.45;;;1.85;;
1412;SDS011;701;52.526;13.408;2023-12-20T11:16:19;7.53;;;1.90;;
1412;SDS011;701;52.526;13.408;2023-12-20T11:18:45;7.85;;;1.92;;
1412;SDS011;701;52.526;13.408;2023-12-20T11:21:11;10.93;;;2.73;;
1412;SDS011;701;52.526;13.408;2023-12-20T11:23:39;8.02;;;2.35;;
1412;SDS011;701;52.526;13.408;2023-12-20T11:26:07;8.32;;;1.90;;
1412;SDS011;701;52.526;13.408;2023-12-20T11:28:33;11.90;;;1.70;;
1412;SDS011;701;52.526;13.408;2023-12-20T11:31:00;5.03;;;1.70;;
1412;SDS011;701;52.526;13.408;2023-12-20T11:33:30;10.40;;;1.80;;
1412;SDS011;701;52.526;13.408;2023-12-20T11:36:01;9.98;;;2.28;;
1412;SDS011;701;52.526;13.408;2023-12-20T11:38:29;9.40;;;2.35;;
1412;SDS011;701;52.526;13.408;2023-12-20T11:41:06;13.43;;;2.38;;
1412;SDS011;701;52.526;13.408;2023-12-20T11:43:34;9.90;;;1.90;;
1412;SDS011;701;52.526;13.408;2023-12-20T11:46:04;14.02;;;2.40;;
1412;SDS011;701;52.526;13.408;2023-12-20T11:48:31;9.48;;;2.15;;
1412;SDS011;701;52.526;13.408;2023-12-20T11:50:58;7.55;;;2.00;;
1412;SDS011;701;52.526;13.408;2023-12-20T11:53:24;9.73;;;2.88;;
1412;SDS011;701;52.526;13.408;2023-12-20T11:55:50;9.43;;;2.60;;
1412;SDS011;701;52.526;13.408;2023-12-20T11:58:16;9.53;;;2.23;;
1412;SDS011;701;52.526;13.408;2023-12-20T12:00:42;9.20;;;2.45;;
1412;SDS011;701;52.526;13.408;2023-12-20T12:03:08;7.13;;;1.58;;
1412;SDS011;701;52.526;13.408;2023-12-20T12:05:34;9.15;;;2.25;;
1412;SDS011;701;52.526;13.408;2023-12-20T12:08:01;10.63;;;2.13;;
1412;SDS011;701;52.526;13.408;2023-12-20T12:10:28;11.43;;;1.90;;
1412;SDS011;701;52.526;13.408;2023-12-20T12:12:54;7.72;;;1.90;;
1412;SDS011;701;52.526;13.408;2023-12-20T12:15:20;12.35;;;2.80;;
1412;SDS011;701;52.526;13.408;2023-12-20T12:17:56;11.77;;;2.55;;
1412;SDS011;701;52.526;13.408;2023-12-20T12:20:22;8.35;;;2.05;;
1412;SDS011;701;52.526;13.408;2023-12-20T12:25:24;6.70;;;1.73;;
1412;SDS011;701;52.526;13.408;2023-12-20T12:27:51;9.27;;;2.28;;
1412;SDS011;701;52.526;13.408;2023-12-20T12:30:17;6.90;;;2.10;;
1412;SDS011;701;52.526;13.408;2023-12-20T12:32:46;11.85;;;1.98;;
1412;SDS011;701;52.526;13.408;2023-12-20T12:35:13;9.13;;;2.00;;
1412;SDS011;701;52.526;13.408;2023-12-20T12:37:40;13.05;;;2.10;;
1412;SDS011;701;52.526;13.408;2023-12-20T12:40:07;10.57;;;2.30;;
1412;SDS011;701;52.526;13.408;2023-12-20T12:42:36;9.88;;;2.30;;
1412;SDS011;701;52.526;13.408;2023-12-20T12:45:02;7.22;;;1.70;;
1412;SDS011;701;52.526;13.408;2023-12-20T12:47:29;11.50;;;1.85;;
1412;SDS011;701;52.526;13.408;2023-12-20T12:49:55;10.25;;;2.40;;
1412;SDS011;701;52.526;13.408;2023-12-20T12:52:21;10.07;;;2.63;;
1412;SDS011;701;52.526;13.408;2023-12-20T12:54:47;8.25;;;1.70;;
1412;SDS011;701;52.526;13.408;2023-12-20T12:57:14;7.17;;;1.80;;
1412;SDS011;701;52.526;13.408;2023-12-20T12:59:44;8.60;;;2.28;;
1412;SDS011;701;52.526;13.408;2023-12-20T13:02:11;7.80;;;1.60;;
1412;SDS011;701;52.526;13.408;2023-12-20T13:04:39;8.65;;;1.77;;
1412;SDS011;701;52.526;13.408;2023-12-20T13:07:05;5.78;;;1.98;;
1412;SDS011;701;52.526;13.408;2023-12-20T13:09:31;6.77;;;1.60;;
1412;SDS011;701;52.526;13.408;2023-12-20T13:11:57;6.05;;;1.70;;
1412;SDS011;701;52.526;13.408;2023-12-20T13:14:24;7.57;;;1.90;;
1412;SDS011;701;52.526;13.408;2023-12-20T13:16:49;8.87;;;2.30;;
1412;SDS011;701;52.526;13.408;2023-12-20T13:19:15;7.82;;;2.05;;
1412;SDS011;701;52.526;13.408;2023-12-20T13:21:41;9.82;;;2.35;;
1412;SDS011;701;52.526;13.408;2023-12-20T13:24:07;9.57;;;2.77;;
1412;SDS011;701;52.526;13.408;2023-12-20T13:26:32;8.65;;;2.90;;
1412;SDS011;701;52.526;13.408;2023-12-20T13:28:58;9.63;;;3.17;;
1412;SDS011;701;52.526;13.408;2023-12-20T13:31:24;13.77;;;5.57;;
1412;SDS011;701;52.526;13.408;2023-12-20T13:33:50;11.23;;;4.80;;
1412;SDS011;701;52.526;13.408;2023-12-20T13:36:17;11.05;;;4.53;;
1412;SDS011;701;52.526;13.408;2023-12-20T13:38:44;7.72;;;3.30;;
1412;SDS011;701;52.526;13.408;2023-12-20T13:41:09;8.82;;;3.55;;
1412;SDS011;701;52.526;13.408;2023-12-20T13:43:35;11.50;;;4.57;;
1412;SDS011;701;52.526;13.408;2023-12-20T13:46:01;9.55;;;3.10;;
1412;SDS011;701;52.526;13.408;2023-12-20T13:48:27;3.90;;;1.20;;
1412;SDS011;701;52.526;13.408;2023-12-20T13:50:52;8.73;;;3.58;;
1412;SDS011;701;52.526;13.408;2023-12-20T13:53:19;5.87;;;2.10;;
1412;SDS011;701;52.526;13.408;2023-12-20T13:55:45;5.68;;;2.20;;
1412;SDS011;701;52.526;13.408;2023-12-20T13:58:11;5.97;;;2.17;;
1412;SDS011;701;52.526;13.408;2023-12-20T14:00:37;8.95;;;2.40;;
1412;SDS011;701;52.526;13.408;2023-12-20T14:03:04;4.57;;;1.70;;
1412;SDS011;701;52.526;13.408;2023-12-20T14:05:29;8.55;;;2.17;;
1412;SDS011;701;52.526;13.408;2023-12-20T14:07:56;7.57;;;2.43;;
1412;SDS011;701;52.526;13.408;2023-12-20T14:10:25;7.10;;;2.00;;
1412;SDS011;701;52.526;13.408;2023-12-20T14:12:52;5.10;;;1.23;;
1412;SDS011;701;52.526;13.408;2023-12-20T14:15:18;5.25;;;1.35;;
1412;SDS011;701;52.526;13.408;2023-12-20T14:17:44;8.97;;;2.60;;
1412;SDS011;701;52.526;13.408;2023-12-20T14:20:10;6.70;;;1.60;;
1412;SDS011;701;52.526;13.408;2023-12-20T14:22:39;4.07;;;1.10;;
1412;SDS011;701;52.526;13.408;2023-12-20T14:25:13;10.65;;;1.58;;
1412;SDS011;701;52.526;13.408;2023-12-20T14:27:40;5.63;;;1.07;;
1412;SDS011;701;52.526;13.408;2023-12-20T14:30:11;5.47;;;1.33;;
1412;SDS011;701;52.526;13.408;2023-12-20T14:32:42;6.05;;;1.08;;
1412;SDS011;701;52.526;13.408;2023-12-20T14:35:08;7.38;;;1.60;;
1412;SDS011;701;52.526;13.408;2023-12-20T14:37:37;4.78;;;1.20;;
1412;SDS011;701;52.526;13.408;2023-12-20T14:40:08;4.80;;;1.20;;
1412;SDS011;701;52.526;13.408;2023-12-20T14:42:40;3.20;;;1.00;;
1412;SDS011;701;52.526;13.408;2023-12-20T14:45:06;4.63;;;1.00;;
1412;SDS011;701;52.526;13.408;2023-12-20T14:47:32;3.72;;;1.10;;
1412;SDS011;701;52.526;13.408;2023-12-20T14:49:58;6.23;;;1.40;;
1412;SDS011;701;52.526;13.408;2023-12-20T14:52:23;6.43;;;2.03;;
1412;SDS011;701;52.526;13.408;2023-12-20T14:54:49;5.27;;;1.60;;
1412;SDS011;701;52.526;13.408;2023-12-20T14:57:15;4.45;;;0.98;;
1412;SDS011;701;52.526;13.408;2023-12-20T14:59:40;5.33;;;1.20;;
1412;SDS011;701;52.526;13.408;2023-12-20T15:02:08;4.00;;;1.20;;
1412;SDS011;701;52.526;13.408;2023-12-20T15:04:34;5.88;;;2.10;;
1412;SDS011;701;52.526;13.408;2023-12-20T15:07:00;7.10;;;2.57;;
1412;SDS011;701;52.526;13.408;2023-12-20T15:09:26;8.98;;;1.52;;
1412;SDS011;701;52.526;13.408;2023-12-20T15:11:54;5.63;;;1.27;;
1412;SDS011;701;52.526;13.408;2023-12-20T15:14:20;7.17;;;1.43;;
1412;SDS011;701;52.526;13.408;2023-12-20T15:16:46;5.50;;;1.73;;